Terminal Aerodrome Forecast
Issued by NWS Topeka, KS

Home | Current Version | Previous Version | Text Only | Print | Product List | Glossary On
Versions: 1 2 3 4 5 6 7 8 9 10 11 12 13 14 15 16
000
FTUS43 KTOP 221100
TAFTOP
TAF
KTOP 221123Z 2212/2312 19004KT 1SM -DZ BR OVC005
      TEMPO 2212/2215 3/4SM BR OVC004
     FM221700 19011KT 5SM BR BKN015 OVC025
     FM230700 18010KT 2SM BR OVC009=

USA.gov is the U.S. government's official web portal to all federal, state and local government web resources and services.